Terminal Aerodrome Forecast
Issued by NWS Louisville, KY

Home | Current Version | Previous Version | Text Only | Print | Product List | Glossary On
Versions: 1 2 3 4 5 6 7 8 9 10 11 12 13 14 15 16 17
076
FTUS43 KLMK 221041 AAB
TAFBWG
TAF AMD
KBWG 221041Z 2211/2306 00000KT 1/2SM FG VV002
     FM221300 07005KT P6SM FEW045=

USA.gov is the U.S. government's official web portal to all federal, state and local government web resources and services.